CheckWX is a tool to help pilots better visualize weather data.  It is not intended as a substitute for an official pre-flight weather briefing.

12:39:29 UTC

KEHY METAR
Elk Mountain
Elk Mountain, Wyoming, USA
Current

24 mins ago

KEHY 251215Z AUTO 25026G31KT 10SM BKN043 M01/M06 A3020 RMK AO2 PWINO
Observed
Mar-25 @ 12:15 UTC
Wind
  • 250° at 26 KTS
  • Gusting to 31 KTS
Visibility
10 SM
Flight Rules
VFR
Cloud Levels
  • Broken at 4,300' AGL
Temperature
-1°C / 30°F
Dewpoint
-6°C / 21°F
Humidity
69%
Altimeter
30.2" Hg
Pressure
1022.72 hPa
Previous

49 mins ago

KEHY 251150Z AUTO 24020G26KT 10SM SCT024 BKN029 OVC040 M01/M06 A3020 RMK AO2 PWINO
Observed
Mar-25 @ 11:50 UTC
Wind
  • 240° at 20 KTS
  • Gusting to 26 KTS
Visibility
10 SM
Flight Rules
MVFR
Cloud Levels
  • Scattered at 2,400' AGL
  • Broken at 2,900' AGL
  • Overcast at 4,000' AGL
Temperature
-1°C / 30°F
Dewpoint
-6°C / 21°F
Humidity
69%
Altimeter
30.2" Hg
Pressure
1022.72 hPa
Previous

1 hour ago

KEHY 251130Z AUTO 24017G22KT 10SM BKN024 OVC029 M01/M06 A3021 RMK AO2 PWINO
Observed
Mar-25 @ 11:30 UTC
Wind
  • 240° at 17 KTS
  • Gusting to 22 KTS
Visibility
10 SM
Flight Rules
MVFR
Cloud Levels
  • Broken at 2,400' AGL
  • Overcast at 2,900' AGL
Temperature
-1°C / 30°F
Dewpoint
-6°C / 21°F
Humidity
69%
Altimeter
30.21" Hg
Pressure
1023.02 hPa